createdAt,value
2022-08-20T00:02:14.868Z,5.70
2022-08-20T00:04:44.480Z,5.60
2022-08-20T00:07:13.377Z,6.55
2022-08-20T00:09:42.891Z,7.85
2022-08-20T00:12:11.622Z,6.93
2022-08-20T00:14:39.888Z,5.82
2022-08-20T00:17:08.032Z,5.97
2022-08-20T00:19:36.211Z,6.65
2022-08-20T00:22:05.898Z,4.97
2022-08-20T00:24:34.878Z,5.28
2022-08-20T00:27:03.023Z,6.07
2022-08-20T00:29:31.431Z,5.43
2022-08-20T00:31:59.673Z,4.80
2022-08-20T00:34:28.049Z,6.60
2022-08-20T00:36:56.172Z,4.45
2022-08-20T00:39:25.717Z,5.85
2022-08-20T00:41:53.918Z,5.38
2022-08-20T00:44:22.909Z,4.97
2022-08-20T00:46:51.206Z,6.22
2022-08-20T00:49:22.170Z,8.20
2022-08-20T00:51:52.939Z,4.50
2022-08-20T00:54:23.688Z,5.53
2022-08-20T00:56:57.108Z,5.57
2022-08-20T00:59:27.224Z,5.10
2022-08-20T01:01:56.551Z,6.25
2022-08-20T01:04:26.298Z,5.07
2022-08-20T01:06:54.623Z,5.13
2022-08-20T01:09:49.836Z,5.30
2022-08-20T01:12:12.314Z,4.75
2022-08-20T01:14:45.547Z,4.70
2022-08-20T01:17:16.314Z,4.80
2022-08-20T01:19:45.892Z,6.10
2022-08-20T01:22:28.385Z,5.22
2022-08-20T01:24:59.634Z,4.97
2022-08-20T01:27:29.210Z,4.65
2022-08-20T01:29:58.949Z,4.80
2022-08-20T01:32:27.077Z,5.20
2022-08-20T01:34:55.212Z,4.38
2022-08-20T01:37:24.821Z,4.65
2022-08-20T01:39:59.629Z,7.53
2022-08-20T01:42:30.275Z,4.85
2022-08-20T01:44:58.401Z,4.82
2022-08-20T01:47:31.243Z,5.00
2022-08-20T01:50:09.310Z,6.35
2022-08-20T01:52:41.358Z,5.00
2022-08-20T01:55:09.683Z,5.63
2022-08-20T01:57:39.285Z,7.88
2022-08-20T02:00:08.923Z,5.38
2022-08-20T02:02:42.749Z,5.00
2022-08-20T02:05:11.402Z,4.00
2022-08-20T02:07:39.582Z,4.40
2022-08-20T02:10:08.715Z,4.28
2022-08-20T02:12:39.872Z,4.03
2022-08-20T02:15:10.680Z,4.45
2022-08-20T02:17:39.450Z,3.63
2022-08-20T02:20:09.565Z,3.97
2022-08-20T02:22:40.848Z,4.75
2022-08-20T02:25:17.367Z,4.72
2022-08-20T02:27:48.448Z,5.90
2022-08-20T02:30:27.474Z,5.60
2022-08-20T02:32:56.627Z,6.80
2022-08-20T02:35:24.806Z,6.20
2022-08-20T02:37:52.941Z,5.03
2022-08-20T02:40:30.096Z,4.75
2022-08-20T02:43:01.036Z,4.50
2022-08-20T02:45:29.525Z,4.50
2022-08-20T02:47:59.081Z,4.53
2022-08-20T02:50:27.563Z,4.60
2022-08-20T02:52:55.682Z,4.03
2022-08-20T02:55:26.986Z,4.55
2022-08-20T02:57:58.547Z,3.40
2022-08-20T03:00:37.777Z,4.40
2022-08-20T03:03:07.249Z,3.90
2022-08-20T03:05:35.404Z,4.32
2022-08-20T03:08:04.806Z,4.07
2022-08-20T03:10:33.886Z,3.95
2022-08-20T03:13:02.649Z,3.35
2022-08-20T03:15:32.663Z,4.18
2022-08-20T03:18:00.956Z,5.75
2022-08-20T03:20:29.304Z,5.78
2022-08-20T03:22:58.042Z,4.10
2022-08-20T03:25:26.258Z,3.42
2022-08-20T03:27:55.202Z,3.83
2022-08-20T03:30:24.388Z,3.97
2022-08-20T03:32:53.887Z,4.68
2022-08-20T03:35:23.115Z,4.28
2022-08-20T03:37:51.822Z,3.78
2022-08-20T03:40:22.141Z,4.25
2022-08-20T03:42:52.662Z,3.22
2022-08-20T03:45:21.279Z,4.88
2022-08-20T03:47:49.522Z,4.13
2022-08-20T03:50:23.705Z,4.00
2022-08-20T03:52:52.123Z,4.63
2022-08-20T03:55:20.753Z,3.42
2022-08-20T03:57:51.966Z,5.22
2022-08-20T04:00:21.675Z,4.18
2022-08-20T04:02:50.069Z,3.45
2022-08-20T04:05:19.605Z,4.13
2022-08-20T04:07:47.744Z,4.03
2022-08-20T04:10:15.828Z,4.13
2022-08-20T04:12:51.419Z,3.80
2022-08-20T04:15:21.391Z,5.00
2022-08-20T04:17:50.531Z,5.03
2022-08-20T04:20:23.782Z,4.38
2022-08-20T04:22:59.482Z,4.82
2022-08-20T04:25:29.617Z,4.70
2022-08-20T04:27:58.602Z,3.33
2022-08-20T04:30:27.413Z,3.53
2022-08-20T04:32:56.111Z,4.90
2022-08-20T04:35:25.650Z,4.22
2022-08-20T04:37:59.353Z,4.30
2022-08-20T04:40:45.056Z,3.42
2022-08-20T04:43:13.202Z,3.75
2022-08-20T04:45:41.408Z,4.90
2022-08-20T04:48:14.260Z,5.30
2022-08-20T04:50:47.040Z,3.58
2022-08-20T04:53:17.721Z,3.80
2022-08-20T04:55:46.137Z,4.05
2022-08-20T04:58:18.083Z,3.97
2022-08-20T05:00:47.659Z,3.60
2022-08-20T05:03:15.966Z,2.90
2022-08-20T05:05:46.650Z,3.97
2022-08-20T05:08:16.693Z,4.32
2022-08-20T05:10:48.398Z,3.83
2022-08-20T05:13:16.567Z,4.68
2022-08-20T05:15:45.682Z,4.20
2022-08-20T05:18:14.253Z,3.53
2022-08-20T05:20:43.098Z,5.93
2022-08-20T05:23:13.905Z,3.35
2022-08-20T05:25:42.514Z,4.20
2022-08-20T05:28:12.565Z,3.65
2022-08-20T05:30:41.042Z,6.53
2022-08-20T05:33:09.502Z,4.15
2022-08-20T05:35:38.730Z,3.30
2022-08-20T05:38:06.967Z,3.53
2022-08-20T05:40:36.546Z,3.60
2022-08-20T05:43:05.961Z,3.90
2022-08-20T05:45:34.834Z,6.63
2022-08-20T05:48:05.615Z,4.47
2022-08-20T05:50:34.047Z,6.28
2022-08-20T05:53:02.331Z,3.35
2022-08-20T05:55:30.447Z,4.32
2022-08-20T05:58:00.175Z,7.65
2022-08-20T06:00:28.639Z,5.47
2022-08-20T06:03:16.447Z,4.30
2022-08-20T06:05:44.629Z,4.03
2022-08-20T06:08:13.521Z,4.60
2022-08-20T06:10:42.611Z,3.47
2022-08-20T06:13:13.751Z,4.40
2022-08-20T06:15:42.526Z,5.18
2022-08-20T06:18:28.320Z,5.70
2022-08-20T06:20:57.277Z,4.65
2022-08-20T06:23:25.754Z,4.78
2022-08-20T06:25:54.046Z,5.57
2022-08-20T06:28:24.394Z,3.33
2022-08-20T06:30:53.318Z,7.47
2022-08-20T06:33:21.658Z,8.13
2022-08-20T06:35:50.182Z,4.03
2022-08-20T06:38:18.586Z,6.85
2022-08-20T06:40:46.866Z,4.60
2022-08-20T06:43:15.223Z,5.40
2022-08-20T06:45:47.009Z,4.03
2022-08-20T06:48:15.562Z,4.00
2022-08-20T06:50:47.660Z,5.88
2022-08-20T06:53:17.410Z,5.35
2022-08-20T06:55:48.507Z,5.95
2022-08-20T06:58:36.846Z,5.07
2022-08-20T07:01:09.269Z,4.55
2022-08-20T07:03:39.132Z,4.25
2022-08-20T07:06:07.986Z,4.75
2022-08-20T07:08:36.483Z,4.40
2022-08-20T07:11:04.820Z,6.13
2022-08-20T07:13:32.948Z,5.72
2022-08-20T07:16:01.408Z,5.43
2022-08-20T07:18:31.044Z,4.38
2022-08-20T07:20:59.409Z,7.00
2022-08-20T07:23:28.100Z,5.85
2022-08-20T07:25:56.428Z,7.40
2022-08-20T07:28:25.646Z,5.25
2022-08-20T07:31:13.833Z,5.03
2022-08-20T07:33:45.425Z,8.10
2022-08-20T07:36:14.139Z,5.97
2022-08-20T07:38:45.906Z,5.90
2022-08-20T07:41:15.075Z,8.27
2022-08-20T07:43:45.694Z,7.07
2022-08-20T07:46:14.119Z,6.55
2022-08-20T07:48:46.232Z,6.00
2022-08-20T07:51:17.028Z,4.95
2022-08-20T07:53:46.326Z,5.88
2022-08-20T07:56:15.524Z,9.80
2022-08-20T07:58:47.447Z,5.82
2022-08-20T08:01:15.711Z,11.23
2022-08-20T08:03:50.080Z,7.53
2022-08-20T08:06:29.451Z,7.38
2022-08-20T08:09:01.142Z,10.52
2022-08-20T08:11:29.787Z,14.75
2022-08-20T08:13:58.030Z,12.70
2022-08-20T08:16:26.321Z,16.80
2022-08-20T08:18:56.433Z,14.23
2022-08-20T08:21:26.733Z,13.98
2022-08-20T08:23:55.131Z,14.52
2022-08-20T08:26:23.877Z,15.90
2022-08-20T08:28:52.066Z,15.40
2022-08-20T08:31:20.217Z,14.27
2022-08-20T08:33:48.338Z,17.85
2022-08-20T08:36:16.962Z,20.00
2022-08-20T08:38:46.826Z,17.23
2022-08-20T08:41:17.914Z,21.20
2022-08-20T08:43:47.889Z,18.42
2022-08-20T08:46:21.563Z,15.38
2022-08-20T08:48:50.720Z,17.20
2022-08-20T08:51:20.960Z,21.15
2022-08-20T08:53:53.504Z,22.85
2022-08-20T08:56:21.926Z,20.63
2022-08-20T08:58:50.092Z,20.08
2022-08-20T09:01:55.233Z,20.80
2022-08-20T09:04:08.776Z,14.93
2022-08-20T09:06:36.989Z,19.65
2022-08-20T09:09:07.286Z,19.95
2022-08-20T09:11:49.192Z,17.60
2022-08-20T09:14:17.466Z,16.65
2022-08-20T09:16:52.829Z,16.58
2022-08-20T09:19:21.812Z,22.73
2022-08-20T09:21:50.049Z,19.23
2022-08-20T09:24:19.581Z,15.93
2022-08-20T09:26:47.807Z,11.43
2022-08-20T09:29:16.301Z,25.15
2022-08-20T09:31:45.251Z,26.45
2022-08-20T09:34:15.119Z,27.40
2022-08-20T09:36:43.306Z,40.97
2022-08-20T09:39:12.535Z,42.10
2022-08-20T09:41:42.308Z,32.10
2022-08-20T09:44:10.587Z,31.17
2022-08-20T09:46:38.754Z,24.83
2022-08-20T09:49:07.074Z,23.95
2022-08-20T09:51:38.861Z,27.23
2022-08-20T09:54:07.463Z,26.35
2022-08-20T09:56:36.029Z,18.95
2022-08-20T09:59:05.590Z,19.02
2022-08-20T10:01:34.287Z,19.98
2022-08-20T10:04:02.570Z,20.48
2022-08-20T10:06:34.507Z,19.40
2022-08-20T10:09:05.508Z,17.85
2022-08-20T10:11:33.895Z,17.77
2022-08-20T10:14:02.013Z,15.15
2022-08-20T10:16:31.548Z,13.50
2022-08-20T10:18:59.893Z,18.10
2022-08-20T10:21:28.047Z,16.65
2022-08-20T10:23:56.183Z,14.02
2022-08-20T10:26:24.376Z,19.38
2022-08-20T10:28:53.637Z,16.55
2022-08-20T10:31:21.789Z,14.73
2022-08-20T10:33:51.308Z,15.18
2022-08-20T10:36:19.587Z,14.52
2022-08-20T10:38:49.180Z,11.75
2022-08-20T10:41:17.343Z,16.17
2022-08-20T10:43:45.493Z,16.20
2022-08-20T10:46:13.715Z,17.15
2022-08-20T10:48:41.965Z,14.90
2022-08-20T10:51:11.438Z,13.32
2022-08-20T10:53:39.906Z,9.70
2022-08-20T10:56:09.485Z,11.15
2022-08-20T10:58:39.844Z,10.48
2022-08-20T11:01:09.552Z,9.70
2022-08-20T11:03:37.668Z,13.35
2022-08-20T11:06:06.099Z,12.18
2022-08-20T11:08:36.260Z,9.95
2022-08-20T11:11:04.979Z,15.10
2022-08-20T11:13:33.358Z,11.70
2022-08-20T11:16:01.632Z,9.75
2022-08-20T11:18:29.900Z,14.38
2022-08-20T11:20:58.396Z,14.75
2022-08-20T11:23:27.342Z,13.68
2022-08-20T11:25:56.874Z,13.50
2022-08-20T11:28:31.078Z,13.77
2022-08-20T11:31:00.990Z,12.63
2022-08-20T11:33:29.511Z,10.43
2022-08-20T11:35:57.695Z,10.63
2022-08-20T11:38:25.935Z,12.98
2022-08-20T11:40:54.255Z,12.95
2022-08-20T11:43:23.789Z,12.30
2022-08-20T11:45:55.436Z,10.88
2022-08-20T11:48:23.533Z,11.20
2022-08-20T11:50:51.673Z,11.32
2022-08-20T11:53:19.839Z,15.05
2022-08-20T11:55:49.614Z,13.55
2022-08-20T11:58:17.741Z,17.38
2022-08-20T12:00:47.210Z,17.45
2022-08-20T12:03:15.468Z,14.77
2022-08-20T12:05:45.574Z,11.70
2022-08-20T12:08:25.165Z,17.73
2022-08-20T12:10:56.438Z,13.32
2022-08-20T12:13:30.898Z,14.70
2022-08-20T12:16:14.267Z,13.77
2022-08-20T12:18:42.360Z,8.77
2022-08-20T12:21:10.530Z,11.38
2022-08-20T12:23:38.684Z,10.80
2022-08-20T12:26:09.658Z,10.00
2022-08-20T12:28:37.889Z,11.25
2022-08-20T12:31:06.256Z,10.60
2022-08-20T12:33:35.767Z,10.65
2022-08-20T12:36:04.383Z,8.93
2022-08-20T12:38:32.504Z,11.48
2022-08-20T12:41:00.781Z,13.32
2022-08-20T12:43:28.947Z,11.10
2022-08-20T12:45:57.166Z,10.15
2022-08-20T12:48:25.267Z,14.32
2022-08-20T12:50:54.802Z,9.90
2022-08-20T12:53:22.906Z,13.32
2022-08-20T12:55:51.134Z,12.85
2022-08-20T12:58:19.372Z,10.77
2022-08-20T13:00:50.677Z,10.88
2022-08-20T13:03:19.773Z,9.75
2022-08-20T13:05:47.942Z,9.15
2022-08-20T13:08:19.157Z,11.63
2022-08-20T13:10:47.480Z,11.98
2022-08-20T13:13:20.248Z,11.38
2022-08-20T13:15:49.036Z,11.40
2022-08-20T13:18:17.191Z,12.32
2022-08-20T13:20:45.357Z,12.70
2022-08-20T13:23:13.587Z,9.38
2022-08-20T13:25:43.065Z,9.50
2022-08-20T13:28:11.301Z,12.95
2022-08-20T13:30:40.966Z,12.02
2022-08-20T13:33:09.136Z,14.85
2022-08-20T13:35:37.279Z,10.60
2022-08-20T13:38:05.433Z,8.50
2022-08-20T13:40:33.552Z,11.43
2022-08-20T13:43:06.751Z,13.90
2022-08-20T13:45:36.052Z,13.20
2022-08-20T13:48:04.700Z,13.02
2022-08-20T13:50:35.151Z,10.00
2022-08-20T13:53:03.281Z,11.98
2022-08-20T13:55:31.486Z,9.80
2022-08-20T13:58:05.517Z,15.05
2022-08-20T14:00:33.815Z,14.77
2022-08-20T14:03:02.104Z,12.68
2022-08-20T14:05:30.548Z,13.73
2022-08-20T14:08:05.876Z,12.98
2022-08-20T14:10:33.996Z,13.10
2022-08-20T14:13:05.028Z,11.85
2022-08-20T14:15:33.226Z,15.27
2022-08-20T14:18:01.331Z,15.23
2022-08-20T14:20:32.079Z,9.55
2022-08-20T14:23:00.705Z,11.10
2022-08-20T14:25:29.313Z,10.40
2022-08-20T14:27:57.460Z,11.60
2022-08-20T14:30:28.580Z,12.35
2022-08-20T14:32:56.878Z,13.20
2022-08-20T14:35:25.156Z,14.18
2022-08-20T14:37:54.223Z,14.93
2022-08-20T14:40:24.090Z,10.68
2022-08-20T14:42:52.342Z,11.05
2022-08-20T14:45:20.925Z,9.15
2022-08-20T14:47:53.838Z,9.65
2022-08-20T14:50:25.030Z,11.35
2022-08-20T14:52:53.351Z,15.75
2022-08-20T14:55:22.581Z,10.52
2022-08-20T14:57:50.838Z,13.65
2022-08-20T15:00:20.574Z,11.60
2022-08-20T15:02:50.268Z,14.52
2022-08-20T15:05:18.593Z,9.57
2022-08-20T15:07:47.761Z,13.10
2022-08-20T15:10:19.606Z,11.00
2022-08-20T15:12:47.782Z,10.73
2022-08-20T15:15:16.597Z,8.43
2022-08-20T15:17:46.161Z,9.57
2022-08-20T15:20:20.066Z,8.60
2022-08-20T15:22:49.339Z,11.05
2022-08-20T15:25:20.363Z,9.85
2022-08-20T15:27:48.656Z,11.60
2022-08-20T15:30:18.272Z,11.52
2022-08-20T15:32:46.390Z,15.27
2022-08-20T15:35:15.979Z,12.27
2022-08-20T15:37:45.950Z,16.33
2022-08-20T15:40:15.958Z,7.68
2022-08-20T15:42:46.420Z,10.30
2022-08-20T15:45:21.873Z,10.93
2022-08-20T15:47:52.714Z,9.88
2022-08-20T15:50:44.081Z,10.25
2022-08-20T15:53:14.173Z,9.77
2022-08-20T15:55:45.215Z,8.27
2022-08-20T15:58:18.175Z,17.73
2022-08-20T16:00:54.687Z,11.68
2022-08-20T16:03:33.006Z,9.85
2022-08-20T16:06:04.234Z,14.85
2022-08-20T16:08:46.483Z,11.45
2022-08-20T16:11:20.939Z,16.92
2022-08-20T16:13:50.481Z,11.38
2022-08-20T16:16:21.230Z,14.07
2022-08-20T16:18:51.030Z,11.93
2022-08-20T16:21:21.782Z,10.45
2022-08-20T16:23:49.988Z,12.38
2022-08-20T16:26:30.351Z,14.05
2022-08-20T16:29:02.702Z,10.07
2022-08-20T16:31:33.266Z,10.82
2022-08-20T16:34:33.672Z,9.15
2022-08-20T16:37:06.370Z,14.02
2022-08-20T16:39:38.887Z,14.15
2022-08-20T16:42:07.153Z,9.48
2022-08-20T16:44:36.383Z,15.07
2022-08-20T16:47:14.044Z,11.32
2022-08-20T16:49:45.675Z,7.53
2022-08-20T16:52:15.198Z,8.25
2022-08-20T16:54:44.117Z,11.80
2022-08-20T16:57:17.053Z,8.25
2022-08-20T17:00:09.908Z,7.82
2022-08-20T17:02:39.212Z,7.28
2022-08-20T17:05:07.960Z,10.13
2022-08-20T17:07:46.307Z,11.05
2022-08-20T17:10:17.752Z,9.15
2022-08-20T17:12:47.030Z,10.85
2022-08-20T17:15:23.460Z,10.38
2022-08-20T17:17:51.581Z,11.25
2022-08-20T17:20:20.692Z,9.77
2022-08-20T17:22:52.241Z,9.93
2022-08-20T17:25:21.650Z,8.82
2022-08-20T17:27:49.912Z,9.02
2022-08-20T17:30:24.132Z,10.68
2022-08-20T17:32:57.570Z,10.07
2022-08-20T17:35:32.392Z,9.77
2022-08-20T17:38:02.627Z,10.57
2022-08-20T17:40:40.540Z,10.57
2022-08-20T17:43:10.014Z,10.60
2022-08-20T17:45:41.197Z,10.70
2022-08-20T17:48:13.630Z,10.13
2022-08-20T17:50:42.275Z,10.88
2022-08-20T17:53:23.327Z,7.38
2022-08-20T17:55:53.560Z,10.35
2022-08-20T17:58:22.219Z,8.85
2022-08-20T18:00:50.331Z,8.52
2022-08-20T18:03:21.214Z,9.98
2022-08-20T18:05:52.324Z,8.95
2022-08-20T18:08:38.037Z,9.27
2022-08-20T18:11:10.805Z,8.73
2022-08-20T18:13:48.080Z,8.88
2022-08-20T18:16:21.677Z,7.65
2022-08-20T18:18:56.665Z,10.65
2022-08-20T18:21:53.481Z,8.85
2022-08-20T18:24:25.926Z,7.13
2022-08-20T18:26:56.671Z,8.82
2022-08-20T18:29:27.536Z,8.38
2022-08-20T18:31:56.741Z,8.05
2022-08-20T18:34:36.666Z,9.43
2022-08-20T18:37:06.567Z,11.38
2022-08-20T18:39:37.064Z,8.15
2022-08-20T18:42:07.473Z,8.60
2022-08-20T18:44:40.552Z,8.93
2022-08-20T18:47:21.664Z,8.25
2022-08-20T18:50:00.852Z,9.10
2022-08-20T18:52:33.438Z,11.73
2022-08-20T18:55:09.158Z,11.05
2022-08-20T18:57:41.726Z,7.40
2022-08-20T19:00:13.855Z,7.43
2022-08-20T19:02:54.756Z,10.00
2022-08-20T19:05:27.154Z,11.43
2022-08-20T19:07:55.303Z,8.98
2022-08-20T19:10:40.693Z,9.50
2022-08-20T19:13:17.672Z,10.40
2022-08-20T19:15:47.328Z,6.95
2022-08-20T19:18:19.122Z,11.68
2022-08-20T19:20:52.220Z,10.02
2022-08-20T19:23:23.335Z,7.78
2022-08-20T19:25:55.902Z,9.15
2022-08-20T19:28:25.652Z,8.55
2022-08-20T19:30:53.916Z,7.90
2022-08-20T19:33:29.763Z,8.07
2022-08-20T19:36:08.457Z,8.70
2022-08-20T19:38:41.412Z,8.70
2022-08-20T19:41:11.978Z,10.27
2022-08-20T19:43:43.191Z,7.82
2022-08-20T19:46:12.366Z,6.85
2022-08-20T19:48:49.823Z,8.80
2022-08-20T19:51:24.094Z,9.40
2022-08-20T19:53:52.502Z,8.35
2022-08-20T19:56:23.402Z,7.75
2022-08-20T19:58:59.669Z,7.90
2022-08-20T20:01:27.932Z,8.15
2022-08-20T20:03:58.794Z,8.63
2022-08-20T20:06:27.120Z,6.60
2022-08-20T20:08:57.750Z,8.65
2022-08-20T20:11:31.112Z,10.02
2022-08-20T20:14:05.396Z,7.18
2022-08-20T20:16:33.666Z,8.90
2022-08-20T20:19:24.880Z,8.38
2022-08-20T20:21:51.331Z,9.32
2022-08-20T20:24:23.929Z,7.25
2022-08-20T20:26:53.499Z,6.95
2022-08-20T20:29:24.570Z,6.85
2022-08-20T20:31:55.245Z,6.68
2022-08-20T20:34:26.506Z,8.57
2022-08-20T20:37:04.293Z,12.98
2022-08-20T20:39:33.918Z,7.65
2022-08-20T20:42:04.535Z,10.48
2022-08-20T20:44:37.322Z,8.23
2022-08-20T20:47:06.776Z,7.13
2022-08-20T20:49:36.261Z,7.90
2022-08-20T20:52:06.091Z,7.13
2022-08-20T20:54:44.648Z,11.55
2022-08-20T20:57:32.646Z,12.75
2022-08-20T21:00:07.641Z,12.30
2022-08-20T21:02:35.772Z,16.60
2022-08-20T21:05:03.986Z,12.32
2022-08-20T21:07:32.113Z,13.05
2022-08-20T21:10:00.263Z,13.65
2022-08-20T21:12:29.781Z,13.88
2022-08-20T21:14:58.252Z,11.88
2022-08-20T21:17:26.370Z,15.52
2022-08-20T21:19:54.503Z,13.77
2022-08-20T21:22:22.747Z,13.85
2022-08-20T21:24:51.501Z,11.40
2022-08-20T21:27:20.558Z,11.70
2022-08-20T21:29:50.053Z,14.27
2022-08-20T21:32:18.444Z,17.20
2022-08-20T21:34:46.619Z,12.45
2022-08-20T21:37:15.157Z,16.15
2022-08-20T21:39:43.371Z,8.98
2022-08-20T21:42:29.071Z,11.55
2022-08-20T21:44:59.115Z,9.45
2022-08-20T21:47:27.539Z,11.70
2022-08-20T21:49:55.784Z,9.70
2022-08-20T21:52:23.901Z,8.30
2022-08-20T21:54:53.378Z,11.48
2022-08-20T21:57:22.294Z,11.15
2022-08-20T21:59:50.429Z,9.15
2022-08-20T22:02:19.952Z,12.90
2022-08-20T22:04:48.053Z,11.60
2022-08-20T22:07:16.502Z,11.15
2022-08-20T22:09:44.629Z,10.27
2022-08-20T22:12:15.935Z,8.63
2022-08-20T22:14:44.040Z,10.80
2022-08-20T22:17:12.462Z,11.10
2022-08-20T22:19:41.987Z,9.40
2022-08-20T22:22:10.634Z,8.95
2022-08-20T22:24:38.808Z,7.95
2022-08-20T22:27:07.231Z,8.55
2022-08-20T22:29:35.333Z,13.45
2022-08-20T22:32:03.497Z,9.15
2022-08-20T22:34:32.869Z,13.38
2022-08-20T22:37:02.532Z,9.68
2022-08-20T22:39:30.783Z,10.63
2022-08-20T22:41:58.949Z,10.18
2022-08-20T22:44:27.067Z,11.18
2022-08-20T22:46:55.960Z,7.95
2022-08-20T22:49:26.919Z,9.50
2022-08-20T22:51:55.033Z,9.70
2022-08-20T22:54:26.197Z,9.27
2022-08-20T22:56:54.674Z,8.35
2022-08-20T22:59:22.963Z,9.60
2022-08-20T23:01:51.070Z,8.48
2022-08-20T23:04:23.597Z,8.80
2022-08-20T23:06:51.765Z,12.55
2022-08-20T23:09:21.073Z,9.80
2022-08-20T23:11:50.840Z,8.35
2022-08-20T23:14:18.989Z,10.55
2022-08-20T23:17:01.496Z,8.82
2022-08-20T23:19:29.592Z,8.48
2022-08-20T23:21:57.738Z,8.05
2022-08-20T23:24:25.931Z,9.48
2022-08-20T23:26:55.393Z,8.10
2022-08-20T23:29:25.537Z,7.13
2022-08-20T23:31:54.671Z,7.70
2022-08-20T23:34:22.817Z,6.65
2022-08-20T23:36:52.377Z,6.28
2022-08-20T23:39:20.591Z,8.20
2022-08-20T23:41:48.765Z,7.65
2022-08-20T23:44:25.717Z,7.03
2022-08-20T23:46:55.884Z,6.53
2022-08-20T23:49:23.985Z,6.63
2022-08-20T23:51:52.162Z,6.50
2022-08-20T23:54:20.304Z,7.20
2022-08-20T23:56:48.370Z,7.45
2022-08-20T23:59:17.917Z,6.90
